createdAt,value
2018-11-27T00:02:35.702Z,9.30
2018-11-27T00:06:38.785Z,9.60
2018-11-27T00:10:41.665Z,10.23
2018-11-27T00:14:44.545Z,10.60
2018-11-27T00:18:47.405Z,10.00
2018-11-27T00:22:50.285Z,9.57
2018-11-27T00:26:53.151Z,10.67
2018-11-27T00:30:56.025Z,9.37
2018-11-27T00:34:58.901Z,10.07
2018-11-27T00:39:02.011Z,8.93
2018-11-27T00:43:04.949Z,9.20
2018-11-27T00:47:07.820Z,9.87
2018-11-27T00:51:10.801Z,10.60
2018-11-27T00:55:14.224Z,10.03
2018-11-27T00:59:17.322Z,9.63
2018-11-27T01:03:20.191Z,9.63
2018-11-27T01:07:23.045Z,9.90
2018-11-27T01:11:25.915Z,9.80
2018-11-27T01:15:28.773Z,10.27
2018-11-27T01:19:31.637Z,10.13
2018-11-27T01:23:34.502Z,11.03
2018-11-27T01:27:37.729Z,11.80
2018-11-27T01:31:40.798Z,11.63
2018-11-27T01:35:43.670Z,11.60
2018-11-27T01:39:46.532Z,10.63
2018-11-27T01:43:49.406Z,11.00
2018-11-27T01:47:52.360Z,11.37
2018-11-27T01:51:55.446Z,10.50
2018-11-27T01:55:58.305Z,10.00
2018-11-27T02:00:01.410Z,10.83
2018-11-27T02:04:04.543Z,11.20
2018-11-27T02:08:07.624Z,10.43
2018-11-27T02:12:10.482Z,9.97
2018-11-27T02:16:13.353Z,10.17
2018-11-27T02:20:16.423Z,10.60
2018-11-27T02:24:19.289Z,9.50
2018-11-27T02:28:22.145Z,9.30
2018-11-27T02:32:25.227Z,9.67
2018-11-27T02:36:28.084Z,9.90
2018-11-27T02:40:30.959Z,9.73
2018-11-27T02:44:33.813Z,8.63
2018-11-27T02:48:36.673Z,9.50
2018-11-27T02:52:39.741Z,8.10
2018-11-27T02:56:42.621Z,8.93
2018-11-27T03:00:46.474Z,8.80
2018-11-27T03:04:49.346Z,8.03
2018-11-27T03:08:52.198Z,9.40
2018-11-27T03:12:55.286Z,10.03
2018-11-27T03:16:58.138Z,10.47
2018-11-27T03:21:01.009Z,10.70
2018-11-27T03:25:04.274Z,11.20
2018-11-27T03:29:07.351Z,8.63
2018-11-27T03:33:10.214Z,11.60
2018-11-27T03:37:13.084Z,10.03
2018-11-27T03:41:16.146Z,11.30
2018-11-27T03:45:19.633Z,11.27
2018-11-27T03:49:22.501Z,9.97
2018-11-27T03:53:25.365Z,11.40
2018-11-27T03:57:28.225Z,11.50
2018-11-27T04:01:31.113Z,11.23
2018-11-27T04:05:33.973Z,8.97
2018-11-27T04:09:37.042Z,10.57
2018-11-27T04:13:39.962Z,11.13
2018-11-27T04:17:42.846Z,12.10
2018-11-27T04:21:45.911Z,10.27
2018-11-27T04:25:48.805Z,11.50
2018-11-27T04:29:51.878Z,11.40
2018-11-27T04:33:54.950Z,11.80
2018-11-27T04:37:57.811Z,11.73
2018-11-27T04:42:00.886Z,12.33
2018-11-27T04:46:03.742Z,12.03
2018-11-27T04:50:07.737Z,11.70
2018-11-27T04:54:10.811Z,12.10
2018-11-27T04:58:13.682Z,13.70
2018-11-27T05:02:16.557Z,12.57
2018-11-27T05:06:19.425Z,12.67
2018-11-27T05:10:23.475Z,12.10
2018-11-27T05:14:26.549Z,12.60
2018-11-27T05:18:29.409Z,12.13
2018-11-27T05:22:32.284Z,12.63
2018-11-27T05:26:35.350Z,12.77
2018-11-27T05:30:38.426Z,12.37
2018-11-27T05:34:41.277Z,14.00
2018-11-27T05:38:44.161Z,11.70
2018-11-27T05:42:47.453Z,12.10
2018-11-27T05:46:50.342Z,12.87
2018-11-27T05:50:53.399Z,14.13
2018-11-27T05:54:56.469Z,12.83
2018-11-27T05:58:59.325Z,12.97
2018-11-27T06:03:02.951Z,12.40
2018-11-27T06:07:05.800Z,13.80
2018-11-27T06:11:08.665Z,12.13
2018-11-27T06:15:14.128Z,12.47
2018-11-27T06:19:16.993Z,13.13
2018-11-27T06:23:19.853Z,13.60
2018-11-27T06:27:22.934Z,13.03
2018-11-27T06:31:25.814Z,13.40
2018-11-27T06:35:29.327Z,14.27
2018-11-27T06:39:32.313Z,15.40
2018-11-27T06:43:35.185Z,12.40
2018-11-27T06:47:38.076Z,13.20
2018-11-27T06:51:41.165Z,15.50
2018-11-27T06:55:44.021Z,14.40
2018-11-27T06:59:46.893Z,14.77
2018-11-27T07:03:49.778Z,16.20
2018-11-27T07:07:52.725Z,14.57
2018-11-27T07:11:55.581Z,15.60
2018-11-27T07:15:58.465Z,14.53
2018-11-27T07:20:01.333Z,15.63
2018-11-27T07:24:04.442Z,14.93
2018-11-27T07:28:07.318Z,16.43
2018-11-27T07:32:10.413Z,16.03
2018-11-27T07:36:13.264Z,14.30
2018-11-27T07:40:16.613Z,15.13
2018-11-27T07:44:19.468Z,15.90
2018-11-27T07:48:22.429Z,16.20
2018-11-27T07:52:25.288Z,14.47
2018-11-27T07:56:28.165Z,15.63
2018-11-27T08:00:31.021Z,16.20
2018-11-27T08:04:34.110Z,14.73
2018-11-27T08:08:36.973Z,17.00
2018-11-27T08:12:40.059Z,16.50
2018-11-27T08:16:42.913Z,16.30
2018-11-27T08:20:45.797Z,16.10
2018-11-27T08:24:48.658Z,17.40
2018-11-27T08:28:51.535Z,16.70
2018-11-27T08:32:55.350Z,15.27
2018-11-27T08:36:58.217Z,17.77
2018-11-27T08:41:01.310Z,16.50
2018-11-27T08:45:04.617Z,15.60
2018-11-27T08:49:07.693Z,15.53
2018-11-27T08:53:10.561Z,16.10
2018-11-27T08:57:13.441Z,16.20
2018-11-27T09:01:16.547Z,16.27
2018-11-27T09:05:19.520Z,18.07
2018-11-27T09:09:22.793Z,17.67
2018-11-27T09:13:25.681Z,17.00
2018-11-27T09:17:28.789Z,16.50
2018-11-27T09:21:31.649Z,16.87
2018-11-27T09:25:34.617Z,17.27
2018-11-27T09:29:37.694Z,16.37
2018-11-27T09:33:40.581Z,17.20
2018-11-27T09:37:43.445Z,18.13
2018-11-27T09:41:46.549Z,18.03
2018-11-27T09:45:49.652Z,17.40
2018-11-27T09:49:52.602Z,18.23
2018-11-27T09:53:55.461Z,17.47
2018-11-27T09:57:59.391Z,17.30
2018-11-27T10:02:01.436Z,18.43
2018-11-27T10:06:04.325Z,16.50
2018-11-27T10:10:09.544Z,16.93
2018-11-27T10:14:12.445Z,16.50
2018-11-27T10:18:15.509Z,16.83
2018-11-27T10:22:18.590Z,16.17
2018-11-27T10:26:21.449Z,18.93
2018-11-27T10:30:25.634Z,17.80
2018-11-27T10:34:28.487Z,16.33
2018-11-27T10:38:31.353Z,17.27
2018-11-27T10:42:34.431Z,18.33
2018-11-27T10:46:37.337Z,18.43
2018-11-27T10:50:40.205Z,17.50
2018-11-27T10:54:43.289Z,17.37
2018-11-27T10:58:46.149Z,18.40
2018-11-27T11:02:54.527Z,16.50
2018-11-27T11:06:57.401Z,17.70
2018-11-27T11:11:00.486Z,17.83
2018-11-27T11:15:03.343Z,17.73
2018-11-27T11:19:06.428Z,16.87
2018-11-27T11:23:09.285Z,17.47
2018-11-27T11:27:12.160Z,16.67
2018-11-27T11:31:15.024Z,19.60
2018-11-27T11:35:17.901Z,18.00
2018-11-27T11:39:20.758Z,17.23
2018-11-27T11:43:23.626Z,16.70
2018-11-27T11:47:26.489Z,18.70
2018-11-27T11:51:29.398Z,18.50
2018-11-27T11:55:32.473Z,16.67
2018-11-27T11:59:35.339Z,16.87
2018-11-27T12:03:38.201Z,18.80
2018-11-27T12:07:41.084Z,18.13
2018-11-27T12:11:43.945Z,18.40
2018-11-27T12:15:46.817Z,18.60
2018-11-27T12:19:49.681Z,19.67
2018-11-27T12:23:52.561Z,18.17
2018-11-27T12:27:55.638Z,18.80
2018-11-27T12:31:58.513Z,18.40
2018-11-27T12:36:02.442Z,19.30
2018-11-27T12:40:08.482Z,18.83
2018-11-27T12:44:11.341Z,18.37
2018-11-27T12:48:14.227Z,18.33
2018-11-27T12:52:17.085Z,19.13
2018-11-27T12:56:19.952Z,19.13
2018-11-27T13:00:23.786Z,19.10
2018-11-27T13:04:26.872Z,19.10
2018-11-27T13:08:29.966Z,18.80
2018-11-27T13:12:32.837Z,18.40
2018-11-27T13:16:35.701Z,18.63
2018-11-27T13:20:38.945Z,18.37
2018-11-27T13:24:41.805Z,18.53
2018-11-27T13:28:44.890Z,19.07
2018-11-27T13:32:48.741Z,20.10
2018-11-27T13:36:51.639Z,17.90
2018-11-27T13:40:54.721Z,17.37
2018-11-27T13:44:57.608Z,18.90
2018-11-27T13:49:00.682Z,17.97
2018-11-27T13:53:03.780Z,19.73
2018-11-27T13:57:06.655Z,17.43
2018-11-27T14:01:09.743Z,18.93
2018-11-27T14:05:14.037Z,20.73
2018-11-27T14:09:16.937Z,18.33
2018-11-27T14:13:19.810Z,20.43
2018-11-27T14:17:22.685Z,20.73
2018-11-27T14:21:25.570Z,20.97
2018-11-27T14:25:28.653Z,20.87
2018-11-27T14:29:31.506Z,18.40
2018-11-27T14:33:34.381Z,18.57
2018-11-27T14:37:37.461Z,18.07
2018-11-27T14:41:40.341Z,17.03
2018-11-27T14:45:43.197Z,20.60
2018-11-27T14:49:46.282Z,20.10
2018-11-27T14:53:49.161Z,18.60
2018-11-27T14:57:52.054Z,21.87
2018-11-27T15:01:54.910Z,20.07
2018-11-27T15:05:57.778Z,20.00
2018-11-27T15:10:00.661Z,20.10
2018-11-27T15:14:03.546Z,19.40
2018-11-27T15:18:06.590Z,21.43
2018-11-27T15:22:09.678Z,18.20
2018-11-27T15:26:12.533Z,19.57
2018-11-27T15:30:15.971Z,21.20
2018-11-27T15:34:18.820Z,18.70
2018-11-27T15:38:21.697Z,18.47
2018-11-27T15:42:24.561Z,19.87
2018-11-27T15:46:27.442Z,21.40
2018-11-27T15:50:30.306Z,21.10
2018-11-27T15:54:33.188Z,22.27
2018-11-27T15:58:36.062Z,22.10
2018-11-27T16:02:38.961Z,21.23
2018-11-27T16:06:42.034Z,22.90
2018-11-27T16:10:44.932Z,20.27
2018-11-27T16:14:48.026Z,22.53
2018-11-27T16:18:50.911Z,21.20
2018-11-27T16:22:53.773Z,21.23
2018-11-27T16:26:56.651Z,20.00
2018-11-27T16:30:59.529Z,21.23
2018-11-27T16:35:02.412Z,20.07
2018-11-27T16:39:08.230Z,21.43
2018-11-27T16:43:11.320Z,21.03
2018-11-27T16:47:14.178Z,21.60
2018-11-27T16:51:17.078Z,21.50
2018-11-27T16:55:21.193Z,20.03
2018-11-27T16:59:24.274Z,23.03
2018-11-27T17:03:27.397Z,22.20
2018-11-27T17:07:30.281Z,21.87
2018-11-27T17:11:33.157Z,24.60
2018-11-27T17:15:36.037Z,22.27
2018-11-27T17:19:38.905Z,22.60
2018-11-27T17:23:41.778Z,23.70
2018-11-27T17:27:44.718Z,20.07
2018-11-27T17:31:47.807Z,25.40
2018-11-27T17:35:50.698Z,22.97
2018-11-27T17:39:53.577Z,26.30
2018-11-27T17:43:56.441Z,23.50
2018-11-27T17:47:59.348Z,23.90
2018-11-27T17:52:02.261Z,25.80
2018-11-27T17:56:05.145Z,22.70
2018-11-27T18:00:11.857Z,24.40
2018-11-27T18:04:15.042Z,22.87
2018-11-27T18:08:17.901Z,22.10
2018-11-27T18:12:20.806Z,22.60
2018-11-27T18:16:23.677Z,20.47
2018-11-27T18:20:26.561Z,23.63
2018-11-27T18:24:29.632Z,23.53
2018-11-27T18:28:32.505Z,24.03
2018-11-27T18:32:35.397Z,25.90
2018-11-27T18:36:38.275Z,26.50
2018-11-27T18:40:41.145Z,25.30
2018-11-27T18:44:44.034Z,25.40
2018-11-27T18:48:46.894Z,23.87
2018-11-27T18:52:49.773Z,24.90
2018-11-27T18:56:52.846Z,25.83
2018-11-27T19:00:55.835Z,26.20
2018-11-27T19:04:58.685Z,25.70
2018-11-27T19:09:01.558Z,27.73
2018-11-27T19:13:05.117Z,23.77
2018-11-27T19:17:08.009Z,29.20
2018-11-27T19:21:10.877Z,29.60
2018-11-27T19:25:15.140Z,26.50
2018-11-27T19:29:18.205Z,28.13
2018-11-27T19:33:21.099Z,31.17
2018-11-27T19:37:23.961Z,28.87
2018-11-27T19:41:26.854Z,28.10
2018-11-27T19:45:29.793Z,28.03
2018-11-27T19:49:32.683Z,28.43
2018-11-27T19:53:37.277Z,26.67
2018-11-27T19:57:40.381Z,27.43
2018-11-27T20:01:43.251Z,30.43
2018-11-27T20:05:46.121Z,29.17
2018-11-27T20:09:48.985Z,27.27
2018-11-27T20:13:51.891Z,28.40
2018-11-27T20:17:55.077Z,29.80
2018-11-27T20:21:58.026Z,29.30
2018-11-27T20:26:01.102Z,28.13
2018-11-27T20:30:05.253Z,27.47
2018-11-27T20:34:08.128Z,28.57
2018-11-27T20:38:11.098Z,28.10
2018-11-27T20:42:14.175Z,25.13
2018-11-27T20:46:17.061Z,29.07
2018-11-27T20:50:20.497Z,28.47
2018-11-27T20:54:23.370Z,28.37
2018-11-27T20:58:26.442Z,24.77
2018-11-27T21:02:29.365Z,26.77
2018-11-27T21:06:32.177Z,27.73
2018-11-27T21:10:35.190Z,25.57
2018-11-27T21:14:38.074Z,24.20
2018-11-27T21:18:40.949Z,25.43
2018-11-27T21:22:44.032Z,23.57
2018-11-27T21:26:46.913Z,25.33
2018-11-27T21:30:50.446Z,23.40
2018-11-27T21:34:53.309Z,22.77
2018-11-27T21:38:56.381Z,24.67
2018-11-27T21:42:59.261Z,24.37
2018-11-27T21:47:02.329Z,24.80
2018-11-27T21:51:05.418Z,25.10
2018-11-27T21:55:09.866Z,24.60
2018-11-27T21:59:12.749Z,26.37
2018-11-27T22:03:15.637Z,25.23
2018-11-27T22:07:18.525Z,26.77
2018-11-27T22:11:21.390Z,27.17
2018-11-27T22:15:30.181Z,27.73
2018-11-27T22:19:33.052Z,25.33
2018-11-27T22:23:36.130Z,26.50
2018-11-27T22:27:38.994Z,24.47
2018-11-27T22:31:41.861Z,25.40
2018-11-27T22:35:44.934Z,26.53
2018-11-27T22:39:47.814Z,28.10
2018-11-27T22:43:50.674Z,26.10
2018-11-27T22:47:53.630Z,25.90
2018-11-27T22:51:56.494Z,26.57
2018-11-27T22:56:00.320Z,24.33
2018-11-27T23:00:02.242Z,25.33
2018-11-27T23:04:06.089Z,25.30
2018-11-27T23:08:08.982Z,25.60
2018-11-27T23:12:12.071Z,23.80
2018-11-27T23:16:15.167Z,27.60
2018-11-27T23:20:18.289Z,23.43
2018-11-27T23:24:21.362Z,25.20
2018-11-27T23:28:24.236Z,22.67
2018-11-27T23:32:27.097Z,25.27
2018-11-27T23:36:30.190Z,23.83
2018-11-27T23:40:33.045Z,26.57
2018-11-27T23:44:35.921Z,25.40
2018-11-27T23:48:38.785Z,25.40
2018-11-27T23:52:41.757Z,24.47
2018-11-27T23:56:48.787Z,22.50
